Impacts METAR Board
IDs:

KMCB - McComb/Lewis Fld, MS, US

Updated at: 1800 UTC 23 Jan 2019
Potential Impact None Slight Moderate High
Time 23/06Z 23/07Z 23/08Z 23/09Z 23/10Z 23/11Z 23/12Z 23/13Z 23/14Z 23/15Z 23/16Z 23/17Z 23/18Z
Temp61 62 61 61 62 62 63 65 66 67 56 55 54
Dewpt57 58 58 58 58 59 60 61 61 62 53 52 51
Altim30.05 30.03 30.00 29.97 29.97 29.93 29.91 29.89 29.88 29.87 29.90 29.90 29.92
VIS10 10 9 9 10 10 8 10 10 10 7 4 3
CIG75 80 80 80 80 80 6 10 65 10 22 31 10
CoverOVCOVCOVCBKNOVCOVCOVCOVCBKNOVCOVCOVCOVC
FltCatVFRVFRVFRVFRVFRVFRIFRMVFRVFRMVFRMVFRMVFRMVFR
WX---------------------RARA BRRA BR
WDir150140150150170160150180180200330330300
WSpd8 9 8 11 7 9 11 9 13 8 12 10 7
WGst-- -- -- -- -- -- -- -- -- -- -- -- --
Raw hourly METARs
KMCB 230553Z AUTO 15008KT 10SM OVC075 16/14 A3005 RMK AO2 SLP174 T01610139 10178 20161 401940056 58002
KMCB 230702Z AUTO 14009KT 10SM FEW009 SCT060 OVC080 17/14 A3003 RMK AO2 T01670144
KMCB 230753Z AUTO 15008KT 9SM SCT008 SCT028 OVC080 16/14 A3000 RMK AO2 SLP156 T01610144
KMCB 230853Z AUTO 15011KT 9SM BKN080 16/14 A2997 RMK AO2 SLP145 T01610144 58029
KMCB 230953Z AUTO 17007KT 10SM OVC080 17/14 A2997 RMK AO2 SLP145 T01670144
KMCB 231053Z AUTO 16009KT 10SM SCT007 OVC080 17/15 A2993 RMK AO2 SLP133 T01670150
KMCB 231153Z AUTO 15011KT 8SM BKN006 OVC013 17/16 A2991 RMK AO2 CIG 004V009 SLP123 T01720156 10172 20161 58021
KMCB 231253Z AUTO 18009KT 10SM BKN010 BKN014 OVC100 18/16 A2989 RMK AO2 CIG 006V011 SLP120 T01830161
KMCB 231353Z AUTO 18013KT 10SM SCT011 BKN065 BKN110 19/16 A2988 RMK AO2 SLP114 T01890161
KMCB 231453Z AUTO 20008KT 10SM OVC010 19/17 A2987 RMK AO2 SLP110 T01940167 56009
KMCB 231553Z AUTO 33012KT 7SM -RA SCT007 OVC022 13/12 A2990 RMK AO2 PK WND 31026/1524 WSHFT 1515 RAB15 SLP121 P0015 T01330117
KMCB 231700Z AUTO 33010KT 4SM RA BR SCT010 BKN031 OVC080 13/11 A2990 RMK AO2 P0001 T01280111
KMCB 231801Z AUTO 30007KT 3SM RA BR FEW007 BKN010 OVC037 12/11 A2992 RMK AO2 P0002 T01220106



Page loaded:  18:09 UTC  |   10:09 AM Pacific  |   11:09 AM Mountain  |   12:09 PM Central  |   01:09 PM Eastern

 

ADVISORIES

FORECASTS

FORECASTS

OBSERVATIONS

USER TOOLS

ABOUT US